sensor_id;sensor_type;location;lat;lon;timestamp;pressure;altitude;pressure_sealevel;temperature;humidity
23164;BME280;31429;42.674;23.350;2024-01-16T00:00:48;93292.66;;;1.96;100.00
23164;BME280;31429;42.674;23.350;2024-01-16T00:01:49;93306.66;;;2.06;100.00
23164;BME280;31429;42.674;23.350;2024-01-16T00:02:50;93296.50;;;2.09;100.00
23164;BME280;31429;42.674;23.350;2024-01-16T00:03:51;93294.19;;;2.02;100.00
23164;BME280;31429;42.674;23.350;2024-01-16T00:04:51;93306.69;;;2.05;100.00
23164;BME280;31429;42.674;23.350;2024-01-16T00:05:52;93298.13;;;2.92;100.00
23164;BME280;31429;42.674;23.350;2024-01-16T00:06:53;93259.84;;;4.43;100.00
23164;BME280;31429;42.674;23.350;2024-01-16T00:07:54;93250.91;;;4.35;100.00
23164;BME280;31429;42.674;23.350;2024-01-16T00:08:55;93290.59;;;2.90;100.00
23164;BME280;31429;42.674;23.350;2024-01-16T00:09:56;93298.59;;;2.51;100.00
23164;BME280;31429;42.674;23.350;2024-01-16T00:10:57;93307.06;;;2.50;100.00
23164;BME280;31429;42.674;23.350;2024-01-16T00:11:58;93314.50;;;2.53;100.00
23164;BME280;31429;42.674;23.350;2024-01-16T00:12:58;93328.19;;;2.44;100.00
23164;BME280;31429;42.674;23.350;2024-01-16T00:13:59;93332.22;;;2.51;100.00
23164;BME280;31429;42.674;23.350;2024-01-16T00:15:01;93328.19;;;2.46;100.00
23164;BME280;31429;42.674;23.350;2024-01-16T00:16:03;93332.44;;;2.44;100.00
23164;BME280;31429;42.674;23.350;2024-01-16T00:17:06;93338.84;;;2.54;100.00
23164;BME280;31429;42.674;23.350;2024-01-16T00:18:08;93336.88;;;2.63;100.00
23164;BME280;31429;42.674;23.350;2024-01-16T00:19:09;93327.50;;;2.41;100.00
23164;BME280;31429;42.674;23.350;2024-01-16T00:20:11;93334.47;;;2.33;100.00
23164;BME280;31429;42.674;23.350;2024-01-16T00:21:12;93328.59;;;2.32;100.00
23164;BME280;31429;42.674;23.350;2024-01-16T00:22:12;93326.75;;;2.37;100.00
23164;BME280;31429;42.674;23.350;2024-01-16T00:23:13;93325.84;;;2.40;100.00
23164;BME280;31429;42.674;23.350;2024-01-16T00:24:14;93326.56;;;2.43;100.00
23164;BME280;31429;42.674;23.350;2024-01-16T00:25:15;93328.19;;;2.44;100.00
23164;BME280;31429;42.674;23.350;2024-01-16T00:26:21;93330.78;;;2.43;100.00
23164;BME280;31429;42.674;23.350;2024-01-16T00:27:22;93328.94;;;2.20;100.00
23164;BME280;31429;42.674;23.350;2024-01-16T00:28:23;93321.06;;;2.30;100.00
23164;BME280;31429;42.674;23.350;2024-01-16T00:29:23;93323.53;;;2.32;100.00
23164;BME280;31429;42.674;23.350;2024-01-16T00:30:27;93323.16;;;2.16;100.00
23164;BME280;31429;42.674;23.350;2024-01-16T00:31:28;93321.56;;;2.14;100.00
23164;BME280;31429;42.674;23.350;2024-01-16T00:32:28;93334.31;;;2.09;100.00
23164;BME280;31429;42.674;23.350;2024-01-16T00:33:29;93333.63;;;2.32;100.00
23164;BME280;31429;42.674;23.350;2024-01-16T00:34:30;93336.88;;;2.36;100.00
23164;BME280;31429;42.674;23.350;2024-01-16T00:35:31;93335.91;;;2.40;100.00
23164;BME280;31429;42.674;23.350;2024-01-16T00:36:32;93344.50;;;2.34;100.00
23164;BME280;31429;42.674;23.350;2024-01-16T00:37:45;93336.34;;;2.24;100.00
23164;BME280;31429;42.674;23.350;2024-01-16T00:38:47;93332.66;;;2.36;100.00
23164;BME280;31429;42.674;23.350;2024-01-16T00:39:47;93333.25;;;2.44;100.00
23164;BME280;31429;42.674;23.350;2024-01-16T00:40:48;93332.97;;;2.53;100.00
23164;BME280;31429;42.674;23.350;2024-01-16T00:41:49;93336.34;;;2.54;100.00
23164;BME280;31429;42.674;23.350;2024-01-16T00:42:50;93342.72;;;2.38;100.00
23164;BME280;31429;42.674;23.350;2024-01-16T00:43:51;93337.06;;;2.29;100.00
23164;BME280;31429;42.674;23.350;2024-01-16T00:44:51;93342.97;;;2.28;100.00
23164;BME280;31429;42.674;23.350;2024-01-16T00:45:54;93343.03;;;2.27;100.00
23164;BME280;31429;42.674;23.350;2024-01-16T00:46:54;93337.00;;;2.86;100.00
23164;BME280;31429;42.674;23.350;2024-01-16T00:48:05;93302.56;;;4.29;100.00
23164;BME280;31429;42.674;23.350;2024-01-16T00:49:07;93303.31;;;2.87;100.00
23164;BME280;31429;42.674;23.350;2024-01-16T00:50:08;93314.47;;;2.54;100.00
23164;BME280;31429;42.674;23.350;2024-01-16T00:51:09;93318.69;;;2.54;100.00
23164;BME280;31429;42.674;23.350;2024-01-16T00:52:10;93325.13;;;2.62;100.00
23164;BME280;31429;42.674;23.350;2024-01-16T00:53:11;93328.06;;;3.29;100.00
23164;BME280;31429;42.674;23.350;2024-01-16T00:54:12;93293.47;;;4.47;100.00
23164;BME280;31429;42.674;23.350;2024-01-16T00:55:13;93283.41;;;5.49;100.00
23164;BME280;31429;42.674;23.350;2024-01-16T00:56:13;93277.75;;;4.82;100.00
23164;BME280;31429;42.674;23.350;2024-01-16T00:57:16;93297.91;;;3.49;100.00
23164;BME280;31429;42.674;23.350;2024-01-16T00:58:19;93319.84;;;2.70;100.00
23164;BME280;31429;42.674;23.350;2024-01-16T00:59:20;93329.44;;;2.59;100.00
23164;BME280;31429;42.674;23.350;2024-01-16T01:00:21;93338.34;;;2.43;100.00
23164;BME280;31429;42.674;23.350;2024-01-16T01:01:23;93349.53;;;2.34;100.00
23164;BME280;31429;42.674;23.350;2024-01-16T01:02:24;93345.84;;;2.44;100.00
23164;BME280;31429;42.674;23.350;2024-01-16T01:03:25;93337.16;;;2.54;100.00
23164;BME280;31429;42.674;23.350;2024-01-16T01:04:25;93337.06;;;2.57;100.00
23164;BME280;31429;42.674;23.350;2024-01-16T01:05:26;93340.91;;;2.69;100.00
23164;BME280;31429;42.674;23.350;2024-01-16T01:06:28;93354.38;;;2.96;100.00
23164;BME280;31429;42.674;23.350;2024-01-16T01:07:29;93332.81;;;4.32;100.00
23164;BME280;31429;42.674;23.350;2024-01-16T01:08:30;93310.34;;;4.46;100.00
23164;BME280;31429;42.674;23.350;2024-01-16T01:09:32;93330.25;;;3.63;100.00
23164;BME280;31429;42.674;23.350;2024-01-16T01:10:33;93348.16;;;3.06;100.00
23164;BME280;31429;42.674;23.350;2024-01-16T01:11:34;93362.44;;;2.80;100.00
23164;BME280;31429;42.674;23.350;2024-01-16T01:12:34;93366.06;;;2.72;100.00
23164;BME280;31429;42.674;23.350;2024-01-16T01:13:35;93370.00;;;2.80;100.00
23164;BME280;31429;42.674;23.350;2024-01-16T01:14:36;93376.00;;;2.76;100.00
23164;BME280;31429;42.674;23.350;2024-01-16T01:15:37;93365.47;;;2.64;100.00
23164;BME280;31429;42.674;23.350;2024-01-16T01:16:39;93356.47;;;2.55;100.00
23164;BME280;31429;42.674;23.350;2024-01-16T01:17:51;93348.19;;;2.50;100.00
23164;BME280;31429;42.674;23.350;2024-01-16T01:18:52;93339.84;;;2.50;100.00
23164;BME280;31429;42.674;23.350;2024-01-16T01:19:53;93327.63;;;2.90;100.00
23164;BME280;31429;42.674;23.350;2024-01-16T01:20:54;93348.56;;;3.18;100.00
23164;BME280;31429;42.674;23.350;2024-01-16T01:21:56;93292.91;;;5.44;100.00
23164;BME280;31429;42.674;23.350;2024-01-16T01:22:57;93284.13;;;5.92;100.00
23164;BME280;31429;42.674;23.350;2024-01-16T01:23:58;93264.09;;;6.60;100.00
23164;BME280;31429;42.674;23.350;2024-01-16T01:25:00;93268.56;;;5.60;100.00
23164;BME280;31429;42.674;23.350;2024-01-16T01:26:01;93293.19;;;3.86;100.00
23164;BME280;31429;42.674;23.350;2024-01-16T01:27:04;93301.50;;;3.42;100.00
23164;BME280;31429;42.674;23.350;2024-01-16T01:28:06;93303.72;;;3.26;100.00
23164;BME280;31429;42.674;23.350;2024-01-16T01:29:08;93318.91;;;3.25;100.00
23164;BME280;31429;42.674;23.350;2024-01-16T01:30:09;93297.53;;;4.73;100.00
23164;BME280;31429;42.674;23.350;2024-01-16T01:31:11;93268.41;;;5.45;100.00
23164;BME280;31429;42.674;23.350;2024-01-16T01:32:13;93279.56;;;4.57;100.00
23164;BME280;31429;42.674;23.350;2024-01-16T01:33:14;93305.41;;;3.51;100.00
23164;BME280;31429;42.674;23.350;2024-01-16T01:34:15;93322.84;;;3.33;100.00
23164;BME280;31429;42.674;23.350;2024-01-16T01:35:17;93326.47;;;3.26;100.00
23164;BME280;31429;42.674;23.350;2024-01-16T01:36:17;93328.16;;;3.26;100.00
23164;BME280;31429;42.674;23.350;2024-01-16T01:37:18;93336.75;;;3.45;100.00
23164;BME280;31429;42.674;23.350;2024-01-16T01:38:19;93312.22;;;4.63;100.00
23164;BME280;31429;42.674;23.350;2024-01-16T01:39:20;93299.16;;;4.52;100.00
23164;BME280;31429;42.674;23.350;2024-01-16T01:40:21;93315.75;;;3.68;100.00
23164;BME280;31429;42.674;23.350;2024-01-16T01:41:22;93332.22;;;3.30;100.00
23164;BME280;31429;42.674;23.350;2024-01-16T01:42:22;93339.31;;;3.19;100.00
23164;BME280;31429;42.674;23.350;2024-01-16T01:43:24;93338.56;;;3.15;100.00
23164;BME280;31429;42.674;23.350;2024-01-16T01:44:25;93344.31;;;3.20;100.00
23164;BME280;31429;42.674;23.350;2024-01-16T01:45:26;93336.69;;;3.71;100.00
23164;BME280;31429;42.674;23.350;2024-01-16T01:46:27;93329.16;;;3.70;100.00
23164;BME280;31429;42.674;23.350;2024-01-16T01:47:30;93344.91;;;3.28;100.00
23164;BME280;31429;42.674;23.350;2024-01-16T01:48:32;93349.41;;;3.19;100.00
23164;BME280;31429;42.674;23.350;2024-01-16T01:49:33;93346.50;;;3.05;100.00
23164;BME280;31429;42.674;23.350;2024-01-16T01:50:38;93344.81;;;3.05;100.00
23164;BME280;31429;42.674;23.350;2024-01-16T01:51:39;93351.53;;;3.06;100.00
23164;BME280;31429;42.674;23.350;2024-01-16T01:52:40;93354.06;;;3.31;100.00
23164;BME280;31429;42.674;23.350;2024-01-16T01:53:43;93351.06;;;3.20;100.00
23164;BME280;31429;42.674;23.350;2024-01-16T01:54:45;93355.22;;;3.21;100.00
23164;BME280;31429;42.674;23.350;2024-01-16T01:55:46;93354.56;;;3.16;100.00
23164;BME280;31429;42.674;23.350;2024-01-16T01:56:48;93357.81;;;3.19;100.00
23164;BME280;31429;42.674;23.350;2024-01-16T01:57:49;93363.59;;;3.23;100.00
23164;BME280;31429;42.674;23.350;2024-01-16T01:58:53;93358.25;;;3.57;100.00
23164;BME280;31429;42.674;23.350;2024-01-16T01:59:55;93329.72;;;4.24;100.00
23164;BME280;31429;42.674;23.350;2024-01-16T02:00:56;93324.56;;;3.81;100.00
23164;BME280;31429;42.674;23.350;2024-01-16T02:01:57;93324.91;;;3.22;100.00
23164;BME280;31429;42.674;23.350;2024-01-16T02:02:59;93330.34;;;3.10;100.00
23164;BME280;31429;42.674;23.350;2024-01-16T02:04:02;93342.75;;;3.16;100.00
23164;BME280;31429;42.674;23.350;2024-01-16T02:05:03;93317.97;;;4.68;100.00
23164;BME280;31429;42.674;23.350;2024-01-16T02:06:04;93292.19;;;5.61;100.00
23164;BME280;31429;42.674;23.350;2024-01-16T02:07:06;93299.03;;;4.55;100.00
23164;BME280;31429;42.674;23.350;2024-01-16T02:08:08;93322.72;;;3.86;100.00
23164;BME280;31429;42.674;23.350;2024-01-16T02:09:09;93333.41;;;3.44;100.00
23164;BME280;31429;42.674;23.350;2024-01-16T02:10:10;93329.28;;;3.42;100.00
23164;BME280;31429;42.674;23.350;2024-01-16T02:11:10;93295.78;;;4.30;100.00
23164;BME280;31429;42.674;23.350;2024-01-16T02:12:11;93323.31;;;3.92;100.00
23164;BME280;31429;42.674;23.350;2024-01-16T02:13:12;93318.34;;;4.36;100.00
23164;BME280;31429;42.674;23.350;2024-01-16T02:14:13;93306.78;;;5.15;100.00
23164;BME280;31429;42.674;23.350;2024-01-16T02:15:14;93296.03;;;5.31;100.00
23164;BME280;31429;42.674;23.350;2024-01-16T02:16:19;93317.63;;;4.09;100.00
23164;BME280;31429;42.674;23.350;2024-01-16T02:17:20;93327.41;;;3.47;100.00
23164;BME280;31429;42.674;23.350;2024-01-16T02:18:22;93340.78;;;3.51;100.00
23164;BME280;31429;42.674;23.350;2024-01-16T02:19:23;93351.78;;;3.73;100.00
23164;BME280;31429;42.674;23.350;2024-01-16T02:20:26;93363.47;;;3.77;100.00
23164;BME280;31429;42.674;23.350;2024-01-16T02:21:28;93369.56;;;3.71;100.00
23164;BME280;31429;42.674;23.350;2024-01-16T02:22:32;93368.53;;;3.77;100.00
23164;BME280;31429;42.674;23.350;2024-01-16T02:23:35;93362.25;;;3.87;100.00
23164;BME280;31429;42.674;23.350;2024-01-16T02:24:36;93328.88;;;5.32;100.00
23164;BME280;31429;42.674;23.350;2024-01-16T02:25:37;93301.00;;;5.93;100.00
23164;BME280;31429;42.674;23.350;2024-01-16T02:26:38;93301.28;;;5.46;100.00
23164;BME280;31429;42.674;23.350;2024-01-16T02:27:39;93323.47;;;4.11;100.00
23164;BME280;31429;42.674;23.350;2024-01-16T02:28:40;93348.81;;;3.62;100.00
23164;BME280;31429;42.674;23.350;2024-01-16T02:29:41;93361.84;;;3.49;100.00
23164;BME280;31429;42.674;23.350;2024-01-16T02:30:43;93363.81;;;3.41;100.00
23164;BME280;31429;42.674;23.350;2024-01-16T02:31:43;93363.25;;;4.06;100.00
23164;BME280;31429;42.674;23.350;2024-01-16T02:32:44;93319.38;;;5.57;100.00
23164;BME280;31429;42.674;23.350;2024-01-16T02:33:45;93334.06;;;4.65;100.00
23164;BME280;31429;42.674;23.350;2024-01-16T02:34:46;93340.06;;;3.72;100.00
23164;BME280;31429;42.674;23.350;2024-01-16T02:35:46;93352.44;;;3.55;100.00
23164;BME280;31429;42.674;23.350;2024-01-16T02:36:47;93360.44;;;3.41;100.00
23164;BME280;31429;42.674;23.350;2024-01-16T02:37:48;93367.91;;;3.45;100.00
23164;BME280;31429;42.674;23.350;2024-01-16T02:38:50;93347.84;;;4.80;100.00
23164;BME280;31429;42.674;23.350;2024-01-16T02:39:51;93334.00;;;5.10;100.00
23164;BME280;31429;42.674;23.350;2024-01-16T02:40:52;93350.72;;;4.03;100.00
23164;BME280;31429;42.674;23.350;2024-01-16T02:41:53;93365.59;;;3.38;100.00
23164;BME280;31429;42.674;23.350;2024-01-16T02:42:54;93369.47;;;3.23;100.00
23164;BME280;31429;42.674;23.350;2024-01-16T02:43:54;93380.28;;;3.27;100.00
23164;BME280;31429;42.674;23.350;2024-01-16T02:44:55;93381.69;;;3.35;100.00
23164;BME280;31429;42.674;23.350;2024-01-16T02:45:56;93388.09;;;3.45;100.00
23164;BME280;31429;42.674;23.350;2024-01-16T02:46:58;93381.25;;;3.49;100.00
23164;BME280;31429;42.674;23.350;2024-01-16T02:47:59;93395.31;;;3.56;100.00
23164;BME280;31429;42.674;23.350;2024-01-16T02:49:00;93406.28;;;3.55;100.00
23164;BME280;31429;42.674;23.350;2024-01-16T02:50:01;93414.13;;;3.47;100.00
23164;BME280;31429;42.674;23.350;2024-01-16T02:51:03;93413.16;;;3.25;100.00
23164;BME280;31429;42.674;23.350;2024-01-16T02:52:04;93412.69;;;3.14;100.00
23164;BME280;31429;42.674;23.350;2024-01-16T02:53:05;93418.59;;;3.13;100.00
23164;BME280;31429;42.674;23.350;2024-01-16T02:54:07;93431.22;;;3.13;100.00
23164;BME280;31429;42.674;23.350;2024-01-16T02:55:09;93426.41;;;3.06;100.00
23164;BME280;31429;42.674;23.350;2024-01-16T02:56:10;93441.50;;;2.79;100.00
23164;BME280;31429;42.674;23.350;2024-01-16T02:57:11;93452.78;;;2.68;100.00
23164;BME280;31429;42.674;23.350;2024-01-16T02:58:11;93449.31;;;2.72;100.00
23164;BME280;31429;42.674;23.350;2024-01-16T02:59:12;93454.03;;;2.82;100.00
23164;BME280;31429;42.674;23.350;2024-01-16T03:00:14;93453.09;;;2.86;100.00
23164;BME280;31429;42.674;23.350;2024-01-16T03:01:15;93458.00;;;2.91;100.00
23164;BME280;31429;42.674;23.350;2024-01-16T03:02:16;93446.22;;;2.90;100.00
23164;BME280;31429;42.674;23.350;2024-01-16T03:03:17;93462.59;;;3.06;100.00
23164;BME280;31429;42.674;23.350;2024-01-16T03:04:18;93466.75;;;3.07;100.00
23164;BME280;31429;42.674;23.350;2024-01-16T03:05:18;93456.66;;;3.07;100.00
23164;BME280;31429;42.674;23.350;2024-01-16T03:06:22;93460.78;;;3.10;100.00
23164;BME280;31429;42.674;23.350;2024-01-16T03:07:24;93460.50;;;3.19;100.00
23164;BME280;31429;42.674;23.350;2024-01-16T03:08:26;93459.41;;;3.27;100.00
23164;BME280;31429;42.674;23.350;2024-01-16T03:09:28;93475.28;;;3.31;100.00
23164;BME280;31429;42.674;23.350;2024-01-16T03:10:29;93473.81;;;3.24;100.00
23164;BME280;31429;42.674;23.350;2024-01-16T03:11:29;93479.69;;;3.24;100.00
23164;BME280;31429;42.674;23.350;2024-01-16T03:12:32;93465.19;;;3.31;100.00
23164;BME280;31429;42.674;23.350;2024-01-16T03:13:33;93472.50;;;3.91;100.00
23164;BME280;31429;42.674;23.350;2024-01-16T03:14:34;93456.97;;;4.49;100.00
23164;BME280;31429;42.674;23.350;2024-01-16T03:15:36;93479.84;;;3.98;100.00
23164;BME280;31429;42.674;23.350;2024-01-16T03:16:37;93487.19;;;3.80;100.00
23164;BME280;31429;42.674;23.350;2024-01-16T03:17:38;93492.69;;;3.66;100.00
23164;BME280;31429;42.674;23.350;2024-01-16T03:18:38;93496.47;;;3.79;100.00
23164;BME280;31429;42.674;23.350;2024-01-16T03:19:39;93484.47;;;4.35;100.00
23164;BME280;31429;42.674;23.350;2024-01-16T03:20:40;93490.66;;;4.27;100.00
23164;BME280;31429;42.674;23.350;2024-01-16T03:21:41;93470.91;;;4.61;100.00
23164;BME280;31429;42.674;23.350;2024-01-16T03:22:41;93489.75;;;4.04;100.00
23164;BME280;31429;42.674;23.350;2024-01-16T03:23:42;93490.38;;;4.11;100.00
23164;BME280;31429;42.674;23.350;2024-01-16T03:24:45;93461.81;;;5.23;100.00
23164;BME280;31429;42.674;23.350;2024-01-16T03:25:46;93441.81;;;6.60;100.00
23164;BME280;31429;42.674;23.350;2024-01-16T03:26:47;93437.69;;;6.58;100.00
23164;BME280;31429;42.674;23.350;2024-01-16T03:27:48;93450.88;;;5.45;100.00
23164;BME280;31429;42.674;23.350;2024-01-16T03:28:49;93459.22;;;5.47;100.00
23164;BME280;31429;42.674;23.350;2024-01-16T03:29:50;93461.75;;;5.03;100.00
23164;BME280;31429;42.674;23.350;2024-01-16T03:30:51;93464.47;;;4.76;100.00
23164;BME280;31429;42.674;23.350;2024-01-16T03:31:51;93482.13;;;4.54;100.00
23164;BME280;31429;42.674;23.350;2024-01-16T03:32:53;93484.59;;;4.55;100.00
23164;BME280;31429;42.674;23.350;2024-01-16T03:33:54;93455.06;;;6.08;100.00
23164;BME280;31429;42.674;23.350;2024-01-16T03:34:55;93454.19;;;6.29;100.00
23164;BME280;31429;42.674;23.350;2024-01-16T03:35:56;93468.75;;;5.40;100.00
23164;BME280;31429;42.674;23.350;2024-01-16T03:36:57;93438.38;;;6.99;100.00
23164;BME280;31429;42.674;23.350;2024-01-16T03:37:58;93436.28;;;6.89;100.00
23164;BME280;31429;42.674;23.350;2024-01-16T03:38:59;93445.38;;;6.56;100.00
23164;BME280;31429;42.674;23.350;2024-01-16T03:40:01;93442.28;;;7.24;100.00
23164;BME280;31429;42.674;23.350;2024-01-16T03:41:02;93448.88;;;7.64;100.00
23164;BME280;31429;42.674;23.350;2024-01-16T03:42:04;93445.50;;;7.81;100.00
23164;BME280;31429;42.674;23.350;2024-01-16T03:43:05;93467.44;;;6.35;100.00
23164;BME280;31429;42.674;23.350;2024-01-16T03:44:06;93468.88;;;5.59;100.00
23164;BME280;31429;42.674;23.350;2024-01-16T03:45:08;93458.63;;;7.37;100.00
23164;BME280;31429;42.674;23.350;2024-01-16T03:46:10;93470.63;;;5.78;100.00
23164;BME280;31429;42.674;23.350;2024-01-16T03:47:11;93479.66;;;5.42;100.00
23164;BME280;31429;42.674;23.350;2024-01-16T03:48:12;93496.78;;;5.14;100.00
23164;BME280;31429;42.674;23.350;2024-01-16T03:49:13;93507.44;;;4.77;100.00
23164;BME280;31429;42.674;23.350;2024-01-16T03:50:13;93500.22;;;5.13;100.00
23164;BME280;31429;42.674;23.350;2024-01-16T03:51:14;93499.81;;;5.45;100.00
23164;BME280;31429;42.674;23.350;2024-01-16T03:52:16;93505.84;;;4.75;100.00
23164;BME280;31429;42.674;23.350;2024-01-16T03:53:16;93504.47;;;4.89;100.00
23164;BME280;31429;42.674;23.350;2024-01-16T03:54:17;93518.78;;;5.13;100.00
23164;BME280;31429;42.674;23.350;2024-01-16T03:55:19;93495.22;;;6.18;100.00
23164;BME280;31429;42.674;23.350;2024-01-16T03:56:22;93534.69;;;4.46;100.00
23164;BME280;31429;42.674;23.350;2024-01-16T03:57:22;93504.88;;;5.23;100.00
23164;BME280;31429;42.674;23.350;2024-01-16T03:58:25;93526.66;;;5.06;100.00
23164;BME280;31429;42.674;23.350;2024-01-16T03:59:26;93532.72;;;4.79;100.00
23164;BME280;31429;42.674;23.350;2024-01-16T04:00:27;93556.91;;;4.62;100.00
23164;BME280;31429;42.674;23.350;2024-01-16T04:01:31;93542.66;;;5.06;100.00
23164;BME280;31429;42.674;23.350;2024-01-16T04:02:32;93529.00;;;5.77;100.00
23164;BME280;31429;42.674;23.350;2024-01-16T04:03:33;93539.69;;;5.42;100.00
23164;BME280;31429;42.674;23.350;2024-01-16T04:04:35;93522.44;;;7.13;100.00
23164;BME280;31429;42.674;23.350;2024-01-16T04:05:36;93530.72;;;6.38;100.00
23164;BME280;31429;42.674;23.350;2024-01-16T04:06:37;93530.81;;;6.57;100.00
23164;BME280;31429;42.674;23.350;2024-01-16T04:07:38;93511.66;;;8.17;100.00
23164;BME280;31429;42.674;23.350;2024-01-16T04:08:38;93520.16;;;8.16;100.00
23164;BME280;31429;42.674;23.350;2024-01-16T04:09:39;93540.44;;;6.89;100.00
23164;BME280;31429;42.674;23.350;2024-01-16T04:10:41;93544.44;;;6.75;100.00
23164;BME280;31429;42.674;23.350;2024-01-16T04:11:42;93566.19;;;5.76;100.00
23164;BME280;31429;42.674;23.350;2024-01-16T04:12:43;93577.47;;;5.01;100.00
23164;BME280;31429;42.674;23.350;2024-01-16T04:13:44;93557.47;;;5.84;100.00
23164;BME280;31429;42.674;23.350;2024-01-16T04:14:45;93535.00;;;7.16;100.00
23164;BME280;31429;42.674;23.350;2024-01-16T04:15:46;93537.63;;;7.33;100.00
23164;BME280;31429;42.674;23.350;2024-01-16T04:16:47;93539.22;;;7.17;100.00
23164;BME280;31429;42.674;23.350;2024-01-16T04:17:48;93575.88;;;5.22;100.00
23164;BME280;31429;42.674;23.350;2024-01-16T04:18:49;93591.56;;;4.60;100.00
23164;BME280;31429;42.674;23.350;2024-01-16T04:19:49;93593.13;;;4.64;100.00
23164;BME280;31429;42.674;23.350;2024-01-16T04:20:50;93604.47;;;4.28;100.00
23164;BME280;31429;42.674;23.350;2024-01-16T04:21:51;93581.03;;;6.09;100.00
23164;BME280;31429;42.674;23.350;2024-01-16T04:22:52;93589.00;;;5.55;100.00
23164;BME280;31429;42.674;23.350;2024-01-16T04:23:53;93608.09;;;4.71;100.00
23164;BME280;31429;42.674;23.350;2024-01-16T04:24:54;93627.69;;;4.13;100.00
23164;BME280;31429;42.674;23.350;2024-01-16T04:25:56;93609.94;;;4.65;100.00
23164;BME280;31429;42.674;23.350;2024-01-16T04:26:57;93623.78;;;4.29;100.00
23164;BME280;31429;42.674;23.350;2024-01-16T04:27:58;93597.75;;;5.93;100.00
23164;BME280;31429;42.674;23.350;2024-01-16T04:28:58;93627.44;;;4.72;100.00
23164;BME280;31429;42.674;23.350;2024-01-16T04:30:00;93640.94;;;4.21;100.00
23164;BME280;31429;42.674;23.350;2024-01-16T04:31:01;93649.66;;;4.37;100.00
23164;BME280;31429;42.674;23.350;2024-01-16T04:32:02;93627.78;;;5.57;100.00
23164;BME280;31429;42.674;23.350;2024-01-16T04:33:03;93615.72;;;5.63;100.00
23164;BME280;31429;42.674;23.350;2024-01-16T04:34:04;93615.47;;;5.25;100.00
23164;BME280;31429;42.674;23.350;2024-01-16T04:35:05;93637.38;;;4.53;100.00
23164;BME280;31429;42.674;23.350;2024-01-16T04:36:07;93647.50;;;4.27;100.00
23164;BME280;31429;42.674;23.350;2024-01-16T04:37:07;93655.16;;;4.25;100.00
23164;BME280;31429;42.674;23.350;2024-01-16T04:38:08;93641.09;;;4.68;100.00
23164;BME280;31429;42.674;23.350;2024-01-16T04:39:09;93627.09;;;4.82;100.00
23164;BME280;31429;42.674;23.350;2024-01-16T04:40:10;93644.47;;;4.42;100.00
23164;BME280;31429;42.674;23.350;2024-01-16T04:41:13;93639.41;;;4.68;100.00
23164;BME280;31429;42.674;23.350;2024-01-16T04:42:13;93616.59;;;5.86;100.00
23164;BME280;31429;42.674;23.350;2024-01-16T04:43:14;93609.47;;;5.95;100.00
23164;BME280;31429;42.674;23.350;2024-01-16T04:44:15;93611.00;;;6.21;100.00
23164;BME280;31429;42.674;23.350;2024-01-16T04:45:16;93611.91;;;6.40;100.00
23164;BME280;31429;42.674;23.350;2024-01-16T04:46:17;93594.50;;;7.12;100.00
23164;BME280;31429;42.674;23.350;2024-01-16T04:47:18;93603.72;;;6.94;100.00
23164;BME280;31429;42.674;23.350;2024-01-16T04:48:19;93606.88;;;7.38;100.00
23164;BME280;31429;42.674;23.350;2024-01-16T04:49:19;93609.72;;;7.32;100.00
23164;BME280;31429;42.674;23.350;2024-01-16T04:50:20;93624.25;;;6.69;100.00
23164;BME280;31429;42.674;23.350;2024-01-16T04:51:21;93614.50;;;7.38;100.00
23164;BME280;31429;42.674;23.350;2024-01-16T04:52:22;93611.66;;;7.45;100.00
23164;BME280;31429;42.674;23.350;2024-01-16T04:53:22;93634.66;;;6.00;100.00
23164;BME280;31429;42.674;23.350;2024-01-16T04:54:24;93635.22;;;6.50;100.00
23164;BME280;31429;42.674;23.350;2024-01-16T04:55:26;93641.28;;;6.46;100.00
23164;BME280;31429;42.674;23.350;2024-01-16T04:56:28;93647.13;;;6.69;100.00
23164;BME280;31429;42.674;23.350;2024-01-16T04:57:29;93638.91;;;6.21;100.00
23164;BME280;31429;42.674;23.350;2024-01-16T04:58:31;93664.78;;;5.39;100.00
23164;BME280;31429;42.674;23.350;2024-01-16T04:59:33;93664.63;;;5.67;100.00
23164;BME280;31429;42.674;23.350;2024-01-16T05:00:34;93664.47;;;5.93;100.00
23164;BME280;31429;42.674;23.350;2024-01-16T05:01:35;93674.53;;;5.02;100.00
23164;BME280;31429;42.674;23.350;2024-01-16T05:02:35;93693.34;;;4.95;100.00
23164;BME280;31429;42.674;23.350;2024-01-16T05:03:36;93678.19;;;5.89;100.00
23164;BME280;31429;42.674;23.350;2024-01-16T05:04:37;93684.56;;;5.76;100.00
23164;BME280;31429;42.674;23.350;2024-01-16T05:05:38;93673.38;;;6.26;100.00
23164;BME280;31429;42.674;23.350;2024-01-16T05:06:40;93667.84;;;6.59;100.00
23164;BME280;31429;42.674;23.350;2024-01-16T05:07:41;93665.78;;;7.29;100.00
23164;BME280;31429;42.674;23.350;2024-01-16T05:08:42;93690.47;;;6.43;100.00
23164;BME280;31429;42.674;23.350;2024-01-16T05:09:44;93676.06;;;6.85;100.00
23164;BME280;31429;42.674;23.350;2024-01-16T05:10:45;93700.13;;;5.90;100.00
23164;BME280;31429;42.674;23.350;2024-01-16T05:11:47;93687.63;;;6.72;100.00
23164;BME280;31429;42.674;23.350;2024-01-16T05:12:48;93688.44;;;6.93;100.00
23164;BME280;31429;42.674;23.350;2024-01-16T05:13:49;93703.09;;;6.66;100.00
23164;BME280;31429;42.674;23.350;2024-01-16T05:14:50;93695.56;;;6.43;100.00
23164;BME280;31429;42.674;23.350;2024-01-16T05:15:51;93691.31;;;7.65;100.00
23164;BME280;31429;42.674;23.350;2024-01-16T05:16:52;93716.66;;;7.07;100.00
23164;BME280;31429;42.674;23.350;2024-01-16T05:17:53;93697.88;;;7.89;100.00
23164;BME280;31429;42.674;23.350;2024-01-16T05:18:54;93720.75;;;6.48;100.00
23164;BME280;31429;42.674;23.350;2024-01-16T05:19:54;93731.22;;;5.95;100.00
23164;BME280;31429;42.674;23.350;2024-01-16T05:20:55;93740.78;;;5.64;100.00